sensor_id;sensor_type;location;lat;lon;timestamp;P1;durP1;ratioP1;P2;durP2;ratioP2
75340;SDS011;64931;47.562;18.920;2023-04-03T00:01:26;9.00;;;5.60;;
75340;SDS011;64931;47.562;18.920;2023-04-03T00:03:52;10.70;;;6.40;;
75340;SDS011;64931;47.562;18.920;2023-04-03T00:06:17;9.20;;;5.70;;
75340;SDS011;64931;47.562;18.920;2023-04-03T00:08:43;8.80;;;6.00;;
75340;SDS011;64931;47.562;18.920;2023-04-03T00:11:08;9.50;;;6.10;;
75340;SDS011;64931;47.562;18.920;2023-04-03T00:13:35;9.00;;;5.60;;
75340;SDS011;64931;47.562;18.920;2023-04-03T00:16:01;10.00;;;5.40;;
75340;SDS011;64931;47.562;18.920;2023-04-03T00:18:28;8.70;;;5.20;;
75340;SDS011;64931;47.562;18.920;2023-04-03T00:20:54;10.50;;;6.10;;
75340;SDS011;64931;47.562;18.920;2023-04-03T00:23:21;8.30;;;5.90;;
75340;SDS011;64931;47.562;18.920;2023-04-03T00:25:48;8.00;;;5.10;;
75340;SDS011;64931;47.562;18.920;2023-04-03T00:28:14;8.10;;;5.30;;
75340;SDS011;64931;47.562;18.920;2023-04-03T00:30:40;8.10;;;5.40;;
75340;SDS011;64931;47.562;18.920;2023-04-03T00:33:06;7.10;;;4.20;;
75340;SDS011;64931;47.562;18.920;2023-04-03T00:35:31;9.10;;;5.30;;
75340;SDS011;64931;47.562;18.920;2023-04-03T00:37:57;8.50;;;5.10;;
75340;SDS011;64931;47.562;18.920;2023-04-03T00:40:24;10.80;;;5.60;;
75340;SDS011;64931;47.562;18.920;2023-04-03T00:42:59;8.50;;;5.30;;
75340;SDS011;64931;47.562;18.920;2023-04-03T00:45:32;9.30;;;5.90;;
75340;SDS011;64931;47.562;18.920;2023-04-03T00:47:59;9.20;;;6.00;;
75340;SDS011;64931;47.562;18.920;2023-04-03T00:50:27;9.20;;;5.30;;
75340;SDS011;64931;47.562;18.920;2023-04-03T00:52:54;7.90;;;4.80;;
75340;SDS011;64931;47.562;18.920;2023-04-03T00:55:20;8.80;;;4.90;;
75340;SDS011;64931;47.562;18.920;2023-04-03T00:57:46;8.60;;;5.40;;
75340;SDS011;64931;47.562;18.920;2023-04-03T01:00:13;8.20;;;5.00;;
75340;SDS011;64931;47.562;18.920;2023-04-03T01:02:42;7.40;;;4.60;;
75340;SDS011;64931;47.562;18.920;2023-04-03T01:05:07;8.50;;;4.70;;
75340;SDS011;64931;47.562;18.920;2023-04-03T01:07:33;8.40;;;4.90;;
75340;SDS011;64931;47.562;18.920;2023-04-03T01:10:01;7.20;;;4.00;;
75340;SDS011;64931;47.562;18.920;2023-04-03T01:12:39;6.70;;;3.50;;
75340;SDS011;64931;47.562;18.920;2023-04-03T01:15:07;7.20;;;4.20;;
75340;SDS011;64931;47.562;18.920;2023-04-03T01:17:40;6.90;;;4.20;;
75340;SDS011;64931;47.562;18.920;2023-04-03T01:25:43;6.50;;;4.40;;
75340;SDS011;64931;47.562;18.920;2023-04-03T01:28:24;6.80;;;3.70;;
75340;SDS011;64931;47.562;18.920;2023-04-03T01:33:31;7.20;;;4.30;;
75340;SDS011;64931;47.562;18.920;2023-04-03T01:35:57;7.30;;;3.80;;
75340;SDS011;64931;47.562;18.920;2023-04-03T01:38:23;7.20;;;4.10;;
75340;SDS011;64931;47.562;18.920;2023-04-03T01:40:49;7.50;;;4.50;;
75340;SDS011;64931;47.562;18.920;2023-04-03T01:43:14;6.80;;;4.00;;
75340;SDS011;64931;47.562;18.920;2023-04-03T01:45:40;6.60;;;4.10;;
75340;SDS011;64931;47.562;18.920;2023-04-03T01:48:05;6.10;;;3.60;;
75340;SDS011;64931;47.562;18.920;2023-04-03T01:50:31;6.00;;;3.30;;
75340;SDS011;64931;47.562;18.920;2023-04-03T01:52:57;6.50;;;3.70;;
75340;SDS011;64931;47.562;18.920;2023-04-03T01:55:22;6.20;;;3.70;;
75340;SDS011;64931;47.562;18.920;2023-04-03T01:57:47;7.10;;;3.70;;
75340;SDS011;64931;47.562;18.920;2023-04-03T02:00:13;6.30;;;3.70;;
75340;SDS011;64931;47.562;18.920;2023-04-03T02:02:39;6.30;;;3.40;;
75340;SDS011;64931;47.562;18.920;2023-04-03T02:05:05;5.80;;;3.60;;
75340;SDS011;64931;47.562;18.920;2023-04-03T02:07:31;6.40;;;3.80;;
75340;SDS011;64931;47.562;18.920;2023-04-03T02:09:56;7.10;;;4.40;;
75340;SDS011;64931;47.562;18.920;2023-04-03T02:12:21;6.70;;;4.00;;
75340;SDS011;64931;47.562;18.920;2023-04-03T02:14:47;6.10;;;3.50;;
75340;SDS011;64931;47.562;18.920;2023-04-03T02:17:12;7.50;;;3.80;;
75340;SDS011;64931;47.562;18.920;2023-04-03T02:19:38;5.90;;;3.30;;
75340;SDS011;64931;47.562;18.920;2023-04-03T02:22:04;6.40;;;3.50;;
75340;SDS011;64931;47.562;18.920;2023-04-03T02:24:29;5.90;;;3.70;;
75340;SDS011;64931;47.562;18.920;2023-04-03T02:26:55;6.10;;;3.60;;
75340;SDS011;64931;47.562;18.920;2023-04-03T02:29:21;7.00;;;3.70;;
75340;SDS011;64931;47.562;18.920;2023-04-03T02:31:47;6.20;;;3.40;;
75340;SDS011;64931;47.562;18.920;2023-04-03T02:34:12;6.50;;;3.80;;
75340;SDS011;64931;47.562;18.920;2023-04-03T02:36:38;6.00;;;3.50;;
75340;SDS011;64931;47.562;18.920;2023-04-03T02:39:03;6.50;;;4.00;;
75340;SDS011;64931;47.562;18.920;2023-04-03T02:41:29;6.60;;;4.00;;
75340;SDS011;64931;47.562;18.920;2023-04-03T02:44:01;6.00;;;3.60;;
75340;SDS011;64931;47.562;18.920;2023-04-03T02:46:27;6.20;;;4.10;;
75340;SDS011;64931;47.562;18.920;2023-04-03T02:48:52;6.70;;;4.20;;
75340;SDS011;64931;47.562;18.920;2023-04-03T02:51:18;6.70;;;3.50;;
75340;SDS011;64931;47.562;18.920;2023-04-03T02:53:43;6.50;;;3.10;;
75340;SDS011;64931;47.562;18.920;2023-04-03T02:56:08;6.00;;;3.30;;
75340;SDS011;64931;47.562;18.920;2023-04-03T02:58:34;7.50;;;4.10;;
75340;SDS011;64931;47.562;18.920;2023-04-03T03:01:00;7.30;;;4.00;;
75340;SDS011;64931;47.562;18.920;2023-04-03T03:03:26;7.30;;;5.00;;
75340;SDS011;64931;47.562;18.920;2023-04-03T03:06:02;7.60;;;4.00;;
75340;SDS011;64931;47.562;18.920;2023-04-03T03:08:28;6.80;;;4.20;;
75340;SDS011;64931;47.562;18.920;2023-04-03T03:10:54;7.00;;;3.80;;
75340;SDS011;64931;47.562;18.920;2023-04-03T03:13:19;7.10;;;4.10;;
75340;SDS011;64931;47.562;18.920;2023-04-03T03:15:45;6.90;;;4.20;;
75340;SDS011;64931;47.562;18.920;2023-04-03T03:18:10;8.50;;;4.60;;
75340;SDS011;64931;47.562;18.920;2023-04-03T03:20:35;7.70;;;4.40;;
75340;SDS011;64931;47.562;18.920;2023-04-03T03:23:01;6.30;;;3.80;;
75340;SDS011;64931;47.562;18.920;2023-04-03T03:25:26;7.80;;;4.40;;
75340;SDS011;64931;47.562;18.920;2023-04-03T03:27:52;7.40;;;4.10;;
75340;SDS011;64931;47.562;18.920;2023-04-03T03:30:17;8.70;;;4.60;;
75340;SDS011;64931;47.562;18.920;2023-04-03T03:32:42;7.30;;;5.10;;
75340;SDS011;64931;47.562;18.920;2023-04-03T03:35:08;6.40;;;4.10;;
75340;SDS011;64931;47.562;18.920;2023-04-03T03:37:33;7.40;;;4.50;;
75340;SDS011;64931;47.562;18.920;2023-04-03T03:39:59;8.50;;;4.80;;
75340;SDS011;64931;47.562;18.920;2023-04-03T03:42:25;7.60;;;4.60;;
75340;SDS011;64931;47.562;18.920;2023-04-03T03:44:50;8.60;;;5.00;;
75340;SDS011;64931;47.562;18.920;2023-04-03T03:47:16;7.90;;;4.30;;
75340;SDS011;64931;47.562;18.920;2023-04-03T03:49:42;6.40;;;3.30;;
75340;SDS011;64931;47.562;18.920;2023-04-03T03:52:07;6.40;;;3.80;;
75340;SDS011;64931;47.562;18.920;2023-04-03T03:54:36;8.90;;;4.90;;
75340;SDS011;64931;47.562;18.920;2023-04-03T03:57:02;8.20;;;4.40;;
75340;SDS011;64931;47.562;18.920;2023-04-03T03:59:28;7.40;;;4.70;;
75340;SDS011;64931;47.562;18.920;2023-04-03T04:01:54;7.60;;;4.50;;
75340;SDS011;64931;47.562;18.920;2023-04-03T04:04:19;7.90;;;5.10;;
75340;SDS011;64931;47.562;18.920;2023-04-03T04:06:45;8.00;;;4.50;;
75340;SDS011;64931;47.562;18.920;2023-04-03T04:09:11;8.10;;;5.20;;
75340;SDS011;64931;47.562;18.920;2023-04-03T04:11:36;8.40;;;4.80;;
75340;SDS011;64931;47.562;18.920;2023-04-03T04:14:01;8.80;;;4.90;;
75340;SDS011;64931;47.562;18.920;2023-04-03T04:16:27;8.20;;;4.80;;
75340;SDS011;64931;47.562;18.920;2023-04-03T04:18:52;8.20;;;5.00;;
75340;SDS011;64931;47.562;18.920;2023-04-03T04:21:18;8.10;;;4.90;;
75340;SDS011;64931;47.562;18.920;2023-04-03T04:23:43;7.60;;;5.20;;
75340;SDS011;64931;47.562;18.920;2023-04-03T04:26:08;8.00;;;3.60;;
75340;SDS011;64931;47.562;18.920;2023-04-03T04:28:34;8.50;;;5.40;;
75340;SDS011;64931;47.562;18.920;2023-04-03T04:30:59;7.40;;;4.20;;
75340;SDS011;64931;47.562;18.920;2023-04-03T04:33:25;8.30;;;4.60;;
75340;SDS011;64931;47.562;18.920;2023-04-03T04:35:50;7.00;;;3.90;;
75340;SDS011;64931;47.562;18.920;2023-04-03T04:38:16;9.50;;;4.90;;
75340;SDS011;64931;47.562;18.920;2023-04-03T04:40:42;7.40;;;4.90;;
75340;SDS011;64931;47.562;18.920;2023-04-03T04:43:07;8.50;;;4.90;;
75340;SDS011;64931;47.562;18.920;2023-04-03T04:45:33;7.20;;;4.40;;
75340;SDS011;64931;47.562;18.920;2023-04-03T04:47:58;8.10;;;4.40;;
75340;SDS011;64931;47.562;18.920;2023-04-03T04:50:24;8.10;;;4.70;;
75340;SDS011;64931;47.562;18.920;2023-04-03T04:52:49;9.20;;;5.30;;
75340;SDS011;64931;47.562;18.920;2023-04-03T04:55:15;8.40;;;5.00;;
75340;SDS011;64931;47.562;18.920;2023-04-03T04:57:40;8.70;;;4.80;;
75340;SDS011;64931;47.562;18.920;2023-04-03T05:00:06;8.80;;;4.90;;
75340;SDS011;64931;47.562;18.920;2023-04-03T05:02:32;9.50;;;4.70;;
75340;SDS011;64931;47.562;18.920;2023-04-03T05:04:58;6.50;;;3.70;;
75340;SDS011;64931;47.562;18.920;2023-04-03T05:07:23;7.20;;;4.70;;
75340;SDS011;64931;47.562;18.920;2023-04-03T05:09:49;9.70;;;4.60;;
75340;SDS011;64931;47.562;18.920;2023-04-03T05:12:16;8.80;;;5.20;;
75340;SDS011;64931;47.562;18.920;2023-04-03T05:14:41;7.50;;;4.70;;
75340;SDS011;64931;47.562;18.920;2023-04-03T05:17:07;7.50;;;4.20;;
75340;SDS011;64931;47.562;18.920;2023-04-03T05:19:32;7.60;;;4.00;;
75340;SDS011;64931;47.562;18.920;2023-04-03T05:21:58;7.60;;;5.00;;
75340;SDS011;64931;47.562;18.920;2023-04-03T05:24:23;6.60;;;3.90;;
75340;SDS011;64931;47.562;18.920;2023-04-03T05:26:49;7.50;;;4.50;;
75340;SDS011;64931;47.562;18.920;2023-04-03T05:29:14;7.00;;;4.20;;
75340;SDS011;64931;47.562;18.920;2023-04-03T05:31:39;7.80;;;4.70;;
75340;SDS011;64931;47.562;18.920;2023-04-03T05:34:05;7.70;;;4.00;;
75340;SDS011;64931;47.562;18.920;2023-04-03T05:36:30;7.10;;;4.30;;
75340;SDS011;64931;47.562;18.920;2023-04-03T05:38:56;6.80;;;3.70;;
75340;SDS011;64931;47.562;18.920;2023-04-03T05:41:22;7.50;;;3.80;;
75340;SDS011;64931;47.562;18.920;2023-04-03T05:43:47;8.00;;;4.20;;
75340;SDS011;64931;47.562;18.920;2023-04-03T05:46:14;7.20;;;4.00;;
75340;SDS011;64931;47.562;18.920;2023-04-03T05:51:07;7.20;;;4.00;;
75340;SDS011;64931;47.562;18.920;2023-04-03T05:54:03;6.70;;;3.50;;
75340;SDS011;64931;47.562;18.920;2023-04-03T05:56:33;6.60;;;4.00;;
75340;SDS011;64931;47.562;18.920;2023-04-03T05:58:59;6.50;;;3.90;;
75340;SDS011;64931;47.562;18.920;2023-04-03T06:01:24;7.20;;;3.80;;
75340;SDS011;64931;47.562;18.920;2023-04-03T06:03:50;7.40;;;4.40;;
75340;SDS011;64931;47.562;18.920;2023-04-03T06:06:15;6.40;;;4.30;;
75340;SDS011;64931;47.562;18.920;2023-04-03T06:08:41;6.10;;;3.80;;
75340;SDS011;64931;47.562;18.920;2023-04-03T06:11:06;7.40;;;4.30;;
75340;SDS011;64931;47.562;18.920;2023-04-03T06:13:33;6.40;;;3.50;;
75340;SDS011;64931;47.562;18.920;2023-04-03T06:16:00;7.30;;;4.00;;
75340;SDS011;64931;47.562;18.920;2023-04-03T06:18:27;6.90;;;3.70;;
75340;SDS011;64931;47.562;18.920;2023-04-03T06:20:52;7.20;;;3.70;;
75340;SDS011;64931;47.562;18.920;2023-04-03T06:23:18;6.40;;;3.90;;
75340;SDS011;64931;47.562;18.920;2023-04-03T06:25:43;5.90;;;3.20;;
75340;SDS011;64931;47.562;18.920;2023-04-03T06:28:09;6.20;;;3.50;;
75340;SDS011;64931;47.562;18.920;2023-04-03T06:30:35;6.90;;;4.00;;
75340;SDS011;64931;47.562;18.920;2023-04-03T06:33:01;6.00;;;3.60;;
75340;SDS011;64931;47.562;18.920;2023-04-03T06:35:27;5.80;;;2.90;;
75340;SDS011;64931;47.562;18.920;2023-04-03T06:37:53;5.50;;;3.40;;
75340;SDS011;64931;47.562;18.920;2023-04-03T06:40:21;5.70;;;3.60;;
75340;SDS011;64931;47.562;18.920;2023-04-03T06:42:47;6.90;;;3.70;;
75340;SDS011;64931;47.562;18.920;2023-04-03T06:45:13;5.40;;;2.80;;
75340;SDS011;64931;47.562;18.920;2023-04-03T06:47:38;5.60;;;3.30;;
75340;SDS011;64931;47.562;18.920;2023-04-03T06:50:04;5.60;;;3.50;;
75340;SDS011;64931;47.562;18.920;2023-04-03T06:52:31;5.50;;;3.20;;
75340;SDS011;64931;47.562;18.920;2023-04-03T06:54:57;4.90;;;2.80;;
75340;SDS011;64931;47.562;18.920;2023-04-03T06:57:24;5.70;;;3.30;;
75340;SDS011;64931;47.562;18.920;2023-04-03T06:59:50;5.50;;;3.20;;
75340;SDS011;64931;47.562;18.920;2023-04-03T07:02:16;5.50;;;3.40;;
75340;SDS011;64931;47.562;18.920;2023-04-03T07:04:42;6.50;;;3.40;;
75340;SDS011;64931;47.562;18.920;2023-04-03T07:07:07;5.90;;;3.50;;
75340;SDS011;64931;47.562;18.920;2023-04-03T07:09:33;6.50;;;3.10;;
75340;SDS011;64931;47.562;18.920;2023-04-03T07:11:58;5.20;;;2.70;;
75340;SDS011;64931;47.562;18.920;2023-04-03T07:14:24;5.50;;;3.00;;
75340;SDS011;64931;47.562;18.920;2023-04-03T07:16:50;5.60;;;2.80;;
75340;SDS011;64931;47.562;18.920;2023-04-03T07:19:15;5.60;;;3.40;;
75340;SDS011;64931;47.562;18.920;2023-04-03T07:21:43;5.50;;;3.10;;
75340;SDS011;64931;47.562;18.920;2023-04-03T07:24:08;5.60;;;2.80;;
75340;SDS011;64931;47.562;18.920;2023-04-03T07:26:34;6.90;;;2.90;;
75340;SDS011;64931;47.562;18.920;2023-04-03T07:29:00;5.30;;;3.20;;
75340;SDS011;64931;47.562;18.920;2023-04-03T07:31:25;5.10;;;2.70;;
75340;SDS011;64931;47.562;18.920;2023-04-03T07:33:51;8.00;;;2.80;;
75340;SDS011;64931;47.562;18.920;2023-04-03T07:36:17;5.20;;;2.80;;
75340;SDS011;64931;47.562;18.920;2023-04-03T07:38:45;5.50;;;2.80;;
75340;SDS011;64931;47.562;18.920;2023-04-03T07:41:12;3.80;;;1.90;;
75340;SDS011;64931;47.562;18.920;2023-04-03T07:43:40;4.10;;;2.10;;
75340;SDS011;64931;47.562;18.920;2023-04-03T07:46:06;4.30;;;2.40;;
75340;SDS011;64931;47.562;18.920;2023-04-03T07:48:31;5.20;;;2.20;;
75340;SDS011;64931;47.562;18.920;2023-04-03T07:51:00;4.40;;;2.20;;
75340;SDS011;64931;47.562;18.920;2023-04-03T07:53:27;4.40;;;2.20;;
75340;SDS011;64931;47.562;18.920;2023-04-03T07:55:53;3.70;;;1.80;;
75340;SDS011;64931;47.562;18.920;2023-04-03T07:58:21;4.30;;;1.60;;
75340;SDS011;64931;47.562;18.920;2023-04-03T08:00:49;3.60;;;1.80;;
75340;SDS011;64931;47.562;18.920;2023-04-03T08:03:15;4.20;;;1.80;;
75340;SDS011;64931;47.562;18.920;2023-04-03T08:05:48;3.60;;;1.70;;
75340;SDS011;64931;47.562;18.920;2023-04-03T08:08:38;3.00;;;1.50;;
75340;SDS011;64931;47.562;18.920;2023-04-03T08:11:03;3.10;;;1.80;;
75340;SDS011;64931;47.562;18.920;2023-04-03T08:13:31;3.20;;;1.60;;
75340;SDS011;64931;47.562;18.920;2023-04-03T08:15:56;3.10;;;1.60;;
75340;SDS011;64931;47.562;18.920;2023-04-03T08:18:24;3.00;;;1.50;;
75340;SDS011;64931;47.562;18.920;2023-04-03T08:20:53;3.20;;;1.60;;
75340;SDS011;64931;47.562;18.920;2023-04-03T08:25:45;2.90;;;1.40;;
75340;SDS011;64931;47.562;18.920;2023-04-03T08:28:10;3.20;;;1.70;;
75340;SDS011;64931;47.562;18.920;2023-04-03T08:30:38;3.50;;;1.70;;
75340;SDS011;64931;47.562;18.920;2023-04-03T08:35:29;4.50;;;1.70;;
75340;SDS011;64931;47.562;18.920;2023-04-03T08:37:55;2.50;;;1.30;;
75340;SDS011;64931;47.562;18.920;2023-04-03T08:40:21;3.20;;;1.30;;
75340;SDS011;64931;47.562;18.920;2023-04-03T08:42:56;2.30;;;1.20;;
75340;SDS011;64931;47.562;18.920;2023-04-03T08:48:12;4.00;;;1.60;;
75340;SDS011;64931;47.562;18.920;2023-04-03T08:50:41;3.30;;;1.50;;
75340;SDS011;64931;47.562;18.920;2023-04-03T08:53:23;3.20;;;1.40;;
75340;SDS011;64931;47.562;18.920;2023-04-03T08:55:52;3.10;;;1.50;;
75340;SDS011;64931;47.562;18.920;2023-04-03T08:58:22;2.80;;;1.50;;
75340;SDS011;64931;47.562;18.920;2023-04-03T09:00:58;3.40;;;1.30;;
75340;SDS011;64931;47.562;18.920;2023-04-03T09:03:28;2.90;;;1.30;;
75340;SDS011;64931;47.562;18.920;2023-04-03T09:08:30;3.10;;;1.30;;
75340;SDS011;64931;47.562;18.920;2023-04-03T09:11:21;2.80;;;1.30;;
75340;SDS011;64931;47.562;18.920;2023-04-03T09:13:52;3.50;;;1.20;;
75340;SDS011;64931;47.562;18.920;2023-04-03T09:21:59;2.80;;;1.30;;
75340;SDS011;64931;47.562;18.920;2023-04-03T09:24:27;3.70;;;1.60;;
75340;SDS011;64931;47.562;18.920;2023-04-03T09:26:55;5.00;;;2.50;;
75340;SDS011;64931;47.562;18.920;2023-04-03T09:29:25;3.00;;;1.50;;
75340;SDS011;64931;47.562;18.920;2023-04-03T09:31:59;2.60;;;1.40;;
75340;SDS011;64931;47.562;18.920;2023-04-03T09:34:27;2.50;;;1.20;;
75340;SDS011;64931;47.562;18.920;2023-04-03T09:36:56;2.50;;;1.20;;
75340;SDS011;64931;47.562;18.920;2023-04-03T09:39:31;2.90;;;0.90;;
75340;SDS011;64931;47.562;18.920;2023-04-03T09:42:04;3.30;;;1.20;;
75340;SDS011;64931;47.562;18.920;2023-04-03T09:44:37;2.70;;;1.10;;
75340;SDS011;64931;47.562;18.920;2023-04-03T09:47:23;2.50;;;1.10;;
75340;SDS011;64931;47.562;18.920;2023-04-03T09:52:37;3.10;;;1.30;;
75340;SDS011;64931;47.562;18.920;2023-04-03T09:55:23;3.00;;;1.30;;
75340;SDS011;64931;47.562;18.920;2023-04-03T09:57:55;4.00;;;1.20;;
75340;SDS011;64931;47.562;18.920;2023-04-03T10:00:25;3.10;;;1.20;;
75340;SDS011;64931;47.562;18.920;2023-04-03T10:02:55;3.60;;;1.20;;
75340;SDS011;64931;47.562;18.920;2023-04-03T10:05:34;2.40;;;0.90;;
75340;SDS011;64931;47.562;18.920;2023-04-03T10:10:34;2.20;;;1.10;;
75340;SDS011;64931;47.562;18.920;2023-04-03T10:13:19;3.60;;;1.20;;
75340;SDS011;64931;47.562;18.920;2023-04-03T10:15:56;4.20;;;1.10;;
75340;SDS011;64931;47.562;18.920;2023-04-03T10:18:32;3.00;;;1.30;;
75340;SDS011;64931;47.562;18.920;2023-04-03T10:21:06;2.90;;;1.20;;
75340;SDS011;64931;47.562;18.920;2023-04-03T10:23:49;2.70;;;1.20;;
75340;SDS011;64931;47.562;18.920;2023-04-03T10:26:24;2.60;;;1.30;;
75340;SDS011;64931;47.562;18.920;2023-04-03T10:32:09;2.80;;;1.30;;
75340;SDS011;64931;47.562;18.920;2023-04-03T10:34:42;2.80;;;1.10;;
75340;SDS011;64931;47.562;18.920;2023-04-03T10:37:26;2.40;;;1.00;;
75340;SDS011;64931;47.562;18.920;2023-04-03T10:39:56;2.40;;;1.20;;
75340;SDS011;64931;47.562;18.920;2023-04-03T10:42:56;2.70;;;1.30;;
75340;SDS011;64931;47.562;18.920;2023-04-03T10:45:31;2.70;;;1.40;;
75340;SDS011;64931;47.562;18.920;2023-04-03T10:50:35;2.40;;;1.10;;
75340;SDS011;64931;47.562;18.920;2023-04-03T10:53:13;2.70;;;1.10;;
75340;SDS011;64931;47.562;18.920;2023-04-03T10:55:55;2.30;;;1.00;;
75340;SDS011;64931;47.562;18.920;2023-04-03T10:58:26;2.80;;;1.30;;
75340;SDS011;64931;47.562;18.920;2023-04-03T11:00:57;2.70;;;1.30;;
75340;SDS011;64931;47.562;18.920;2023-04-03T11:03:29;3.20;;;1.30;;
75340;SDS011;64931;47.562;18.920;2023-04-03T11:05:57;3.10;;;1.10;;
75340;SDS011;64931;47.562;18.920;2023-04-03T11:11:00;3.60;;;1.50;;
75340;SDS011;64931;47.562;18.920;2023-04-03T11:14:13;3.70;;;1.30;;
75340;SDS011;64931;47.562;18.920;2023-04-03T11:16:47;3.20;;;1.20;;
75340;SDS011;64931;47.562;18.920;2023-04-03T11:19:17;3.30;;;1.20;;
75340;SDS011;64931;47.562;18.920;2023-04-03T11:21:54;2.90;;;1.60;;
75340;SDS011;64931;47.562;18.920;2023-04-03T11:24:25;2.20;;;1.20;;
75340;SDS011;64931;47.562;18.920;2023-04-03T11:26:53;2.70;;;1.30;;
75340;SDS011;64931;47.562;18.920;2023-04-03T11:29:20;3.30;;;1.40;;
75340;SDS011;64931;47.562;18.920;2023-04-03T11:34:44;3.80;;;1.60;;
75340;SDS011;64931;47.562;18.920;2023-04-03T11:37:56;2.40;;;1.00;;
75340;SDS011;64931;47.562;18.920;2023-04-03T11:40:04;3.20;;;1.20;;
75340;SDS011;64931;47.562;18.920;2023-04-03T11:48:00;2.80;;;1.10;;
75340;SDS011;64931;47.562;18.920;2023-04-03T11:50:47;3.60;;;1.40;;
75340;SDS011;64931;47.562;18.920;2023-04-03T11:58:23;2.50;;;1.00;;
75340;SDS011;64931;47.562;18.920;2023-04-03T12:00:55;2.40;;;1.00;;
75340;SDS011;64931;47.562;18.920;2023-04-03T12:05:49;3.80;;;1.40;;
75340;SDS011;64931;47.562;18.920;2023-04-03T12:08:16;2.00;;;1.00;;
75340;SDS011;64931;47.562;18.920;2023-04-03T12:13:36;2.40;;;1.00;;
75340;SDS011;64931;47.562;18.920;2023-04-03T12:16:02;2.70;;;1.10;;
75340;SDS011;64931;47.562;18.920;2023-04-03T12:21:13;2.50;;;0.90;;
75340;SDS011;64931;47.562;18.920;2023-04-03T12:37:51;3.70;;;0.90;;
75340;SDS011;64931;47.562;18.920;2023-04-03T12:46:23;3.60;;;1.20;;
75340;SDS011;64931;47.562;18.920;2023-04-03T12:48:56;2.60;;;1.00;;
75340;SDS011;64931;47.562;18.920;2023-04-03T12:51:28;2.50;;;1.00;;
75340;SDS011;64931;47.562;18.920;2023-04-03T12:59:43;1.80;;;0.90;;
75340;SDS011;64931;47.562;18.920;2023-04-03T13:04:46;2.40;;;1.40;;
75340;SDS011;64931;47.562;18.920;2023-04-03T13:07:21;2.30;;;1.10;;
75340;SDS011;64931;47.562;18.920;2023-04-03T13:10:03;2.50;;;1.10;;
75340;SDS011;64931;47.562;18.920;2023-04-03T13:12:30;3.10;;;1.60;;
75340;SDS011;64931;47.562;18.920;2023-04-03T13:15:00;3.20;;;1.40;;
75340;SDS011;64931;47.562;18.920;2023-04-03T13:17:48;3.50;;;1.40;;
75340;SDS011;64931;47.562;18.920;2023-04-03T13:20:25;2.80;;;1.40;;
75340;SDS011;64931;47.562;18.920;2023-04-03T13:23:02;3.10;;;1.50;;
75340;SDS011;64931;47.562;18.920;2023-04-03T13:25:35;3.20;;;1.30;;
75340;SDS011;64931;47.562;18.920;2023-04-03T13:28:02;2.50;;;1.10;;
75340;SDS011;64931;47.562;18.920;2023-04-03T13:30:32;4.00;;;1.20;;
75340;SDS011;64931;47.562;18.920;2023-04-03T13:33:01;2.70;;;1.20;;
75340;SDS011;64931;47.562;18.920;2023-04-03T13:38:21;2.20;;;1.00;;
75340;SDS011;64931;47.562;18.920;2023-04-03T13:40:49;2.70;;;1.10;;
75340;SDS011;64931;47.562;18.920;2023-04-03T13:43:26;2.50;;;1.20;;
75340;SDS011;64931;47.562;18.920;2023-04-03T13:46:01;2.00;;;1.00;;
75340;SDS011;64931;47.562;18.920;2023-04-03T13:48:47;2.50;;;1.20;;
75340;SDS011;64931;47.562;18.920;2023-04-03T13:51:17;3.80;;;1.20;;
75340;SDS011;64931;47.562;18.920;2023-04-03T13:53:54;3.90;;;1.30;;
75340;SDS011;64931;47.562;18.920;2023-04-03T13:56:33;2.80;;;1.30;;
75340;SDS011;64931;47.562;18.920;2023-04-03T13:59:19;2.70;;;1.30;;
75340;SDS011;64931;47.562;18.920;2023-04-03T14:04:29;2.60;;;1.20;;
75340;SDS011;64931;47.562;18.920;2023-04-03T14:06:57;2.70;;;1.20;;
75340;SDS011;64931;47.562;18.920;2023-04-03T14:09:42;2.80;;;1.20;;
75340;SDS011;64931;47.562;18.920;2023-04-03T14:15:05;3.60;;;1.90;;
75340;SDS011;64931;47.562;18.920;2023-04-03T14:17:42;3.50;;;1.80;;
75340;SDS011;64931;47.562;18.920;2023-04-03T14:20:14;3.70;;;1.80;;
75340;SDS011;64931;47.562;18.920;2023-04-03T14:22:46;3.60;;;1.80;;
75340;SDS011;64931;47.562;18.920;2023-04-03T14:25:13;4.10;;;1.80;;
75340;SDS011;64931;47.562;18.920;2023-04-03T14:27:46;4.10;;;2.00;;
75340;SDS011;64931;47.562;18.920;2023-04-03T14:30:24;4.70;;;2.00;;
75340;SDS011;64931;47.562;18.920;2023-04-03T14:32:51;3.80;;;1.70;;
75340;SDS011;64931;47.562;18.920;2023-04-03T14:35:20;4.30;;;2.00;;
75340;SDS011;64931;47.562;18.920;2023-04-03T14:37:46;3.90;;;1.90;;
75340;SDS011;64931;47.562;18.920;2023-04-03T14:40:17;4.40;;;2.30;;
75340;SDS011;64931;47.562;18.920;2023-04-03T14:42:46;4.10;;;1.90;;
75340;SDS011;64931;47.562;18.920;2023-04-03T14:45:14;4.00;;;2.00;;
75340;SDS011;64931;47.562;18.920;2023-04-03T14:47:42;4.60;;;2.20;;
75340;SDS011;64931;47.562;18.920;2023-04-03T14:50:13;5.50;;;2.50;;
75340;SDS011;64931;47.562;18.920;2023-04-03T14:52:41;9.40;;;2.20;;
75340;SDS011;64931;47.562;18.920;2023-04-03T14:55:06;3.30;;;1.80;;
75340;SDS011;64931;47.562;18.920;2023-04-03T14:57:32;4.20;;;2.30;;
75340;SDS011;64931;47.562;18.920;2023-04-03T14:59:58;4.20;;;1.90;;
75340;SDS011;64931;47.562;18.920;2023-04-03T15:04:59;4.60;;;2.00;;
75340;SDS011;64931;47.562;18.920;2023-04-03T15:07:29;3.20;;;1.80;;
75340;SDS011;64931;47.562;18.920;2023-04-03T15:12:23;5.50;;;2.10;;
75340;SDS011;64931;47.562;18.920;2023-04-03T15:14:50;4.80;;;2.20;;
75340;SDS011;64931;47.562;18.920;2023-04-03T15:17:16;3.80;;;1.60;;
75340;SDS011;64931;47.562;18.920;2023-04-03T15:19:43;4.60;;;1.80;;
75340;SDS011;64931;47.562;18.920;2023-04-03T15:25:01;6.40;;;2.70;;
75340;SDS011;64931;47.562;18.920;2023-04-03T15:27:27;4.60;;;2.30;;
75340;SDS011;64931;47.562;18.920;2023-04-03T15:29:53;4.70;;;2.40;;
75340;SDS011;64931;47.562;18.920;2023-04-03T15:32:19;5.70;;;2.20;;
75340;SDS011;64931;47.562;18.920;2023-04-03T15:34:44;5.70;;;2.10;;
75340;SDS011;64931;47.562;18.920;2023-04-03T15:37:10;3.70;;;1.90;;
75340;SDS011;64931;47.562;18.920;2023-04-03T15:39:35;5.20;;;2.20;;
75340;SDS011;64931;47.562;18.920;2023-04-03T15:42:00;5.00;;;2.10;;
75340;SDS011;64931;47.562;18.920;2023-04-03T15:44:34;5.00;;;2.00;;
75340;SDS011;64931;47.562;18.920;2023-04-03T15:47:00;3.90;;;1.90;;
75340;SDS011;64931;47.562;18.920;2023-04-03T15:49:26;4.60;;;1.80;;
75340;SDS011;64931;47.562;18.920;2023-04-03T15:51:52;4.40;;;2.00;;
75340;SDS011;64931;47.562;18.920;2023-04-03T15:54:17;4.70;;;2.00;;
75340;SDS011;64931;47.562;18.920;2023-04-03T15:56:43;4.70;;;2.60;;
75340;SDS011;64931;47.562;18.920;2023-04-03T15:59:08;5.30;;;2.30;;
75340;SDS011;64931;47.562;18.920;2023-04-03T16:01:34;4.60;;;2.40;;
75340;SDS011;64931;47.562;18.920;2023-04-03T16:04:01;4.30;;;2.10;;
75340;SDS011;64931;47.562;18.920;2023-04-03T16:06:27;4.30;;;1.80;;
75340;SDS011;64931;47.562;18.920;2023-04-03T16:08:55;4.30;;;2.00;;
75340;SDS011;64931;47.562;18.920;2023-04-03T16:11:23;4.20;;;1.90;;
75340;SDS011;64931;47.562;18.920;2023-04-03T16:13:50;5.10;;;2.00;;
75340;SDS011;64931;47.562;18.920;2023-04-03T16:16:15;3.90;;;2.00;;
75340;SDS011;64931;47.562;18.920;2023-04-03T16:18:41;6.10;;;2.10;;
75340;SDS011;64931;47.562;18.920;2023-04-03T16:21:06;7.50;;;2.30;;
75340;SDS011;64931;47.562;18.920;2023-04-03T16:23:33;5.30;;;1.90;;
75340;SDS011;64931;47.562;18.920;2023-04-03T16:25:58;5.60;;;2.00;;
75340;SDS011;64931;47.562;18.920;2023-04-03T16:28:24;5.70;;;2.10;;